Terminal Aerodrome Forecast
Issued by NWS

Home | Current Version | Previous Version | Text Only | Print | Product List | Glossary On
Versions: 1 2 3 4 5 6 7 8 9 10 11 12 13 14 15 16 17 18 19 20 21 22 23 24 25 26 27 28 29
815
FTUS44 KFWD 222320
TAFGKY
TAF
KGKY 222320Z 2300/2324 34014KT P6SM SCT050
     FM230200 33008KT P6SM SCT250
     FM231200 34010KT P6SM BKN025
     FM231600 33012KT P6SM BKN050
     FM232200 34010KT P6SM SCT250=

USA.gov is the U.S. government's official web portal to all federal, state and local government web resources and services.